sensor_id;sensor_type;location;lat;lon;timestamp;pressure;altitude;pressure_sealevel;temperature;humidity
70206;BME280;57593;55.896;37.396;2023-04-16T00:00:13;100833.22;;;7.97;30.56
70206;BME280;57593;55.896;37.396;2023-04-16T00:00:43;100834.59;;;7.89;30.51
70206;BME280;57593;55.896;37.396;2023-04-16T00:01:15;100831.31;;;7.73;30.77
70206;BME280;57593;55.896;37.396;2023-04-16T00:01:46;100834.06;;;7.92;30.72
70206;BME280;57593;55.896;37.396;2023-04-16T00:02:16;100840.09;;;7.92;30.77
70206;BME280;57593;55.896;37.396;2023-04-16T00:02:47;100834.38;;;7.85;30.81
70206;BME280;57593;55.896;37.396;2023-04-16T00:03:18;100830.16;;;7.84;30.59
70206;BME280;57593;55.896;37.396;2023-04-16T00:03:48;100827.00;;;7.87;30.68
70206;BME280;57593;55.896;37.396;2023-04-16T00:04:19;100832.16;;;7.98;30.94
70206;BME280;57593;55.896;37.396;2023-04-16T00:04:50;100828.25;;;7.95;30.65
70206;BME280;57593;55.896;37.396;2023-04-16T00:05:20;100831.22;;;7.83;30.71
70206;BME280;57593;55.896;37.396;2023-04-16T00:05:51;100827.31;;;7.81;30.88
70206;BME280;57593;55.896;37.396;2023-04-16T00:06:25;100836.31;;;7.69;30.73
70206;BME280;57593;55.896;37.396;2023-04-16T00:06:56;100831.00;;;7.80;30.95
70206;BME280;57593;55.896;37.396;2023-04-16T00:07:27;100831.50;;;7.82;30.72
70206;BME280;57593;55.896;37.396;2023-04-16T00:07:58;100834.66;;;7.79;30.95
70206;BME280;57593;55.896;37.396;2023-04-16T00:08:28;100833.41;;;7.76;30.94
70206;BME280;57593;55.896;37.396;2023-04-16T00:08:59;100834.75;;;7.68;30.82
70206;BME280;57593;55.896;37.396;2023-04-16T00:09:30;100833.41;;;7.76;30.89
70206;BME280;57593;55.896;37.396;2023-04-16T00:10:00;100836.09;;;7.66;31.08
70206;BME280;57593;55.896;37.396;2023-04-16T00:10:31;100842.03;;;7.82;31.04
70206;BME280;57593;55.896;37.396;2023-04-16T00:11:01;100838.06;;;7.84;30.81
70206;BME280;57593;55.896;37.396;2023-04-16T00:11:32;100835.16;;;7.86;30.80
70206;BME280;57593;55.896;37.396;2023-04-16T00:12:03;100823.66;;;7.77;30.70
70206;BME280;57593;55.896;37.396;2023-04-16T00:12:35;100840.66;;;7.89;30.79
70206;BME280;57593;55.896;37.396;2023-04-16T00:13:06;100842.94;;;7.96;30.62
70206;BME280;57593;55.896;37.396;2023-04-16T00:13:36;100839.38;;;7.87;30.78
70206;BME280;57593;55.896;37.396;2023-04-16T00:14:07;100845.19;;;7.84;30.61
70206;BME280;57593;55.896;37.396;2023-04-16T00:14:37;100842.78;;;7.87;30.65
70206;BME280;57593;55.896;37.396;2023-04-16T00:15:08;100838.06;;;7.84;30.59
70206;BME280;57593;55.896;37.396;2023-04-16T00:15:39;100831.75;;;7.85;30.84
70206;BME280;57593;55.896;37.396;2023-04-16T00:16:10;100836.53;;;7.78;30.76
70206;BME280;57593;55.896;37.396;2023-04-16T00:16:41;100843.38;;;7.74;30.93
70206;BME280;57593;55.896;37.396;2023-04-16T00:17:11;100839.16;;;7.78;31.01
70206;BME280;57593;55.896;37.396;2023-04-16T00:17:42;100843.31;;;7.84;30.79
70206;BME280;57593;55.896;37.396;2023-04-16T00:18:13;100841.75;;;7.83;30.91
70206;BME280;57593;55.896;37.396;2023-04-16T00:18:43;100831.22;;;7.83;31.08
70206;BME280;57593;55.896;37.396;2023-04-16T00:19:14;100842.28;;;7.80;30.95
70206;BME280;57593;55.896;37.396;2023-04-16T00:19:45;100837.25;;;7.89;30.80
70206;BME280;57593;55.896;37.396;2023-04-16T00:20:16;100835.09;;;7.91;30.97
70206;BME280;57593;55.896;37.396;2023-04-16T00:20:47;100835.59;;;7.64;30.99
70206;BME280;57593;55.896;37.396;2023-04-16T00:21:18;100839.94;;;7.79;31.06
70206;BME280;57593;55.896;37.396;2023-04-16T00:21:48;100841.25;;;7.81;30.99
70206;BME280;57593;55.896;37.396;2023-04-16T00:22:19;100834.38;;;7.85;30.97
70206;BME280;57593;55.896;37.396;2023-04-16T00:22:50;100836.97;;;7.90;31.06
70206;BME280;57593;55.896;37.396;2023-04-16T00:23:20;100837.47;;;7.92;31.01
70206;BME280;57593;55.896;37.396;2023-04-16T00:23:51;100835.66;;;7.88;31.27
70206;BME280;57593;55.896;37.396;2023-04-16T00:24:22;100830.94;;;7.90;31.16
70206;BME280;57593;55.896;37.396;2023-04-16T00:24:52;100829.56;;;7.92;31.19
70206;BME280;57593;55.896;37.396;2023-04-16T00:25:23;100829.81;;;7.96;31.05
70206;BME280;57593;55.896;37.396;2023-04-16T00:25:53;100839.13;;;7.83;30.98
70206;BME280;57593;55.896;37.396;2023-04-16T00:26:26;100834.34;;;7.90;31.05
70206;BME280;57593;55.896;37.396;2023-04-16T00:26:57;100841.13;;;7.97;30.95
70206;BME280;57593;55.896;37.396;2023-04-16T00:27:28;100834.78;;;7.98;30.98
70206;BME280;57593;55.896;37.396;2023-04-16T00:27:59;100834.78;;;7.98;30.78
70206;BME280;57593;55.896;37.396;2023-04-16T00:28:29;100835.88;;;7.91;30.76
70206;BME280;57593;55.896;37.396;2023-04-16T00:29:00;100835.78;;;7.72;31.12
70206;BME280;57593;55.896;37.396;2023-04-16T00:29:31;100835.94;;;7.86;31.22
70206;BME280;57593;55.896;37.396;2023-04-16T00:30:03;100837.84;;;7.76;31.39
70206;BME280;57593;55.896;37.396;2023-04-16T00:30:37;100830.72;;;7.81;31.24
70206;BME280;57593;55.896;37.396;2023-04-16T00:31:08;100830.06;;;7.95;31.05
70206;BME280;57593;55.896;37.396;2023-04-16T00:31:39;100834.84;;;7.92;30.85
70206;BME280;57593;55.896;37.396;2023-04-16T00:32:09;100833.34;;;7.81;30.95
70206;BME280;57593;55.896;37.396;2023-04-16T00:32:40;100834.13;;;7.82;31.20
70206;BME280;57593;55.896;37.396;2023-04-16T00:33:11;100835.94;;;7.86;31.20
70206;BME280;57593;55.896;37.396;2023-04-16T00:33:41;100837.56;;;7.82;31.13
70206;BME280;57593;55.896;37.396;2023-04-16T00:34:12;100836.75;;;7.87;31.20
70206;BME280;57593;55.896;37.396;2023-04-16T00:34:43;100839.16;;;7.78;31.15
70206;BME280;57593;55.896;37.396;2023-04-16T00:35:13;100839.66;;;7.85;31.16
70206;BME280;57593;55.896;37.396;2023-04-16T00:35:45;100841.31;;;7.71;31.14
70206;BME280;57593;55.896;37.396;2023-04-16T00:36:16;100841.75;;;7.83;31.21
70206;BME280;57593;55.896;37.396;2023-04-16T00:36:46;100834.22;;;7.66;31.07
70206;BME280;57593;55.896;37.396;2023-04-16T00:37:17;100838.44;;;7.67;31.62
70206;BME280;57593;55.896;37.396;2023-04-16T00:37:48;100841.00;;;7.78;31.39
70206;BME280;57593;55.896;37.396;2023-04-16T00:38:18;100847.63;;;7.70;31.43
70206;BME280;57593;55.896;37.396;2023-04-16T00:38:50;100847.09;;;7.73;31.46
70206;BME280;57593;55.896;37.396;2023-04-16T00:39:21;100841.28;;;7.76;31.33
70206;BME280;57593;55.896;37.396;2023-04-16T00:39:51;100835.97;;;7.81;31.22
70206;BME280;57593;55.896;37.396;2023-04-16T00:40:22;100847.81;;;7.84;31.15
70206;BME280;57593;55.896;37.396;2023-04-16T00:40:53;100846.97;;;7.88;31.25
70206;BME280;57593;55.896;37.396;2023-04-16T00:41:23;100836.47;;;7.88;31.30
70206;BME280;57593;55.896;37.396;2023-04-16T00:41:54;100851.25;;;7.79;31.64
70206;BME280;57593;55.896;37.396;2023-04-16T00:42:25;100835.44;;;7.84;31.24
70206;BME280;57593;55.896;37.396;2023-04-16T00:42:57;100841.28;;;7.76;31.26
70206;BME280;57593;55.896;37.396;2023-04-16T00:43:27;100847.31;;;7.77;31.21
70206;BME280;57593;55.896;37.396;2023-04-16T00:43:58;100847.53;;;7.85;31.13
70206;BME280;57593;55.896;37.396;2023-04-16T00:44:28;100851.31;;;7.69;31.14
70206;BME280;57593;55.896;37.396;2023-04-16T00:44:59;100844.19;;;7.74;31.13
70206;BME280;57593;55.896;37.396;2023-04-16T00:45:30;100846.00;;;7.74;31.31
70206;BME280;57593;55.896;37.396;2023-04-16T00:46:03;100841.84;;;7.73;31.17
70206;BME280;57593;55.896;37.396;2023-04-16T00:46:35;100848.38;;;7.76;31.38
70206;BME280;57593;55.896;37.396;2023-04-16T00:47:07;100843.94;;;7.71;31.36
70206;BME280;57593;55.896;37.396;2023-04-16T00:47:38;100839.22;;;7.68;31.52
70206;BME280;57593;55.896;37.396;2023-04-16T00:48:09;100848.66;;;7.74;31.55
70206;BME280;57593;55.896;37.396;2023-04-16T00:48:41;100842.56;;;7.79;31.44
70206;BME280;57593;55.896;37.396;2023-04-16T00:49:12;100833.34;;;7.81;31.44
70206;BME280;57593;55.896;37.396;2023-04-16T00:49:44;100837.84;;;7.76;31.45
70206;BME280;57593;55.896;37.396;2023-04-16T00:50:14;100838.06;;;7.84;31.35
70206;BME280;57593;55.896;37.396;2023-04-16T00:50:45;100844.38;;;7.83;31.42
70206;BME280;57593;55.896;37.396;2023-04-16T00:51:17;100843.91;;;7.76;31.47
70206;BME280;57593;55.896;37.396;2023-04-16T00:51:48;100843.16;;;7.70;31.49
70206;BME280;57593;55.896;37.396;2023-04-16T00:52:19;100846.28;;;7.72;31.29
70206;BME280;57593;55.896;37.396;2023-04-16T00:52:49;100838.38;;;7.78;31.36
70206;BME280;57593;55.896;37.396;2023-04-16T00:53:20;100843.38;;;7.79;31.36
70206;BME280;57593;55.896;37.396;2023-04-16T00:53:51;100846.00;;;7.79;31.44
70206;BME280;57593;55.896;37.396;2023-04-16T00:54:24;100848.59;;;7.84;31.41
70206;BME280;57593;55.896;37.396;2023-04-16T00:54:55;100847.06;;;7.78;31.41
70206;BME280;57593;55.896;37.396;2023-04-16T00:55:26;100843.88;;;7.81;31.51
70206;BME280;57593;55.896;37.396;2023-04-16T00:55:57;100841.56;;;7.69;31.43
70206;BME280;57593;55.896;37.396;2023-04-16T00:56:29;100839.25;;;7.63;31.42
70206;BME280;57593;55.896;37.396;2023-04-16T00:56:59;100848.91;;;7.72;31.47
70206;BME280;57593;55.896;37.396;2023-04-16T00:57:31;100845.56;;;7.67;31.59
70206;BME280;57593;55.896;37.396;2023-04-16T00:58:02;100838.94;;;7.74;31.80
70206;BME280;57593;55.896;37.396;2023-04-16T00:58:34;100837.06;;;7.75;31.55
70206;BME280;57593;55.896;37.396;2023-04-16T00:59:05;100841.84;;;7.68;31.60
70206;BME280;57593;55.896;37.396;2023-04-16T00:59:35;100837.41;;;7.63;31.69
70206;BME280;57593;55.896;37.396;2023-04-16T01:00:06;100837.94;;;7.60;31.70
70206;BME280;57593;55.896;37.396;2023-04-16T01:00:37;100840.28;;;7.67;31.79
70206;BME280;57593;55.896;37.396;2023-04-16T01:01:08;100834.22;;;7.71;31.78
70206;BME280;57593;55.896;37.396;2023-04-16T01:01:39;100838.81;;;7.50;31.77
70206;BME280;57593;55.896;37.396;2023-04-16T01:02:10;100838.78;;;7.55;32.12
70206;BME280;57593;55.896;37.396;2023-04-16T01:02:41;100833.19;;;7.67;32.12
70206;BME280;57593;55.896;37.396;2023-04-16T01:03:12;100832.59;;;7.76;32.03
70206;BME280;57593;55.896;37.396;2023-04-16T01:03:44;100831.59;;;7.71;32.04
70206;BME280;57593;55.896;37.396;2023-04-16T01:04:15;100832.97;;;7.59;32.06
70206;BME280;57593;55.896;37.396;2023-04-16T01:04:46;100832.69;;;7.60;31.93
70206;BME280;57593;55.896;37.396;2023-04-16T01:05:17;100836.09;;;7.66;32.05
70206;BME280;57593;55.896;37.396;2023-04-16T01:05:48;100841.13;;;7.62;31.88
70206;BME280;57593;55.896;37.396;2023-04-16T01:06:19;100831.31;;;7.68;31.92
70206;BME280;57593;55.896;37.396;2023-04-16T01:06:51;100837.63;;;7.72;31.79
70206;BME280;57593;55.896;37.396;2023-04-16T01:07:21;100837.34;;;7.73;31.83
70206;BME280;57593;55.896;37.396;2023-04-16T01:07:52;100833.13;;;7.72;32.04
70206;BME280;57593;55.896;37.396;2023-04-16T01:08:23;100830.00;;;7.70;31.95
70206;BME280;57593;55.896;37.396;2023-04-16T01:08:54;100835.50;;;7.74;31.90
70206;BME280;57593;55.896;37.396;2023-04-16T01:09:25;100836.03;;;7.71;31.92
70206;BME280;57593;55.896;37.396;2023-04-16T01:09:56;100837.63;;;7.72;31.91
70206;BME280;57593;55.896;37.396;2023-04-16T01:10:27;100839.19;;;7.73;32.15
70206;BME280;57593;55.896;37.396;2023-04-16T01:10:57;100840.28;;;7.67;32.03
70206;BME280;57593;55.896;37.396;2023-04-16T01:11:28;100835.31;;;7.60;32.17
70206;BME280;57593;55.896;37.396;2023-04-16T01:11:59;100836.69;;;7.52;32.16
70206;BME280;57593;55.896;37.396;2023-04-16T01:12:31;100833.50;;;7.61;32.21
70206;BME280;57593;55.896;37.396;2023-04-16T01:13:01;100836.88;;;7.66;32.21
70206;BME280;57593;55.896;37.396;2023-04-16T01:13:32;100833.69;;;7.69;32.17
70206;BME280;57593;55.896;37.396;2023-04-16T01:14:03;100828.44;;;7.69;32.12
70206;BME280;57593;55.896;37.396;2023-04-16T01:14:34;100833.78;;;7.54;32.23
70206;BME280;57593;55.896;37.396;2023-04-16T01:15:07;100835.06;;;7.62;32.22
70206;BME280;57593;55.896;37.396;2023-04-16T01:15:37;100833.97;;;7.68;32.16
70206;BME280;57593;55.896;37.396;2023-04-16T01:16:10;100834.38;;;7.46;32.15
70206;BME280;57593;55.896;37.396;2023-04-16T01:16:40;100828.94;;;7.32;32.45
70206;BME280;57593;55.896;37.396;2023-04-16T01:17:11;100836.66;;;7.58;32.26
70206;BME280;57593;55.896;37.396;2023-04-16T01:17:44;100838.50;;;7.57;32.20
70206;BME280;57593;55.896;37.396;2023-04-16T01:18:19;100838.22;;;7.59;32.43
70206;BME280;57593;55.896;37.396;2023-04-16T01:18:51;100838.81;;;7.50;32.33
70206;BME280;57593;55.896;37.396;2023-04-16T01:19:21;100839.31;;;7.52;32.40
70206;BME280;57593;55.896;37.396;2023-04-16T01:19:52;100840.94;;;7.48;32.44
70206;BME280;57593;55.896;37.396;2023-04-16T01:20:22;100836.41;;;7.54;32.43
70206;BME280;57593;55.896;37.396;2023-04-16T01:20:53;100844.56;;;7.52;32.25
70206;BME280;57593;55.896;37.396;2023-04-16T01:21:24;100841.94;;;7.58;32.49
70206;BME280;57593;55.896;37.396;2023-04-16T01:21:57;100839.03;;;7.59;32.44
70206;BME280;57593;55.896;37.396;2023-04-16T01:22:28;100841.16;;;7.52;32.60
70206;BME280;57593;55.896;37.396;2023-04-16T01:22:58;100840.13;;;7.53;32.66
70206;BME280;57593;55.896;37.396;2023-04-16T01:23:29;100832.78;;;7.50;32.69
70206;BME280;57593;55.896;37.396;2023-04-16T01:24:03;100837.22;;;7.49;32.73
70206;BME280;57593;55.896;37.396;2023-04-16T01:24:34;100842.50;;;7.49;32.62
70206;BME280;57593;55.896;37.396;2023-04-16T01:25:05;100842.47;;;7.54;32.49
70206;BME280;57593;55.896;37.396;2023-04-16T01:25:37;100840.38;;;7.51;32.50
70206;BME280;57593;55.896;37.396;2023-04-16T01:26:07;100839.84;;;7.54;32.45
70206;BME280;57593;55.896;37.396;2023-04-16T01:26:38;100840.13;;;7.48;32.49
70206;BME280;57593;55.896;37.396;2023-04-16T01:27:09;100842.56;;;7.39;32.52
70206;BME280;57593;55.896;37.396;2023-04-16T01:27:40;100835.38;;;7.55;32.65
70206;BME280;57593;55.896;37.396;2023-04-16T01:28:10;100840.63;;;7.55;32.65
70206;BME280;57593;55.896;37.396;2023-04-16T01:28:42;100842.44;;;7.60;32.57
70206;BME280;57593;55.896;37.396;2023-04-16T01:29:12;100839.59;;;7.51;32.42
70206;BME280;57593;55.896;37.396;2023-04-16T01:29:43;100839.84;;;7.49;32.69
70206;BME280;57593;55.896;37.396;2023-04-16T01:30:14;100837.19;;;7.60;32.68
70206;BME280;57593;55.896;37.396;2023-04-16T01:31:05;100836.41;;;7.54;32.58
70206;BME280;57593;55.896;37.396;2023-04-16T01:31:49;100835.91;;;7.52;32.61
70206;BME280;57593;55.896;37.396;2023-04-16T01:32:31;100841.94;;;7.52;32.51
70206;BME280;57593;55.896;37.396;2023-04-16T01:33:01;100834.13;;;7.42;32.46
70206;BME280;57593;55.896;37.396;2023-04-16T01:33:33;100837.00;;;7.46;32.36
70206;BME280;57593;55.896;37.396;2023-04-16T01:34:03;100835.94;;;7.47;32.54
70206;BME280;57593;55.896;37.396;2023-04-16T01:34:34;100840.38;;;7.51;32.42
70206;BME280;57593;55.896;37.396;2023-04-16T01:35:05;100830.88;;;7.55;32.58
70206;BME280;57593;55.896;37.396;2023-04-16T01:35:36;100827.16;;;7.62;32.65
70206;BME280;57593;55.896;37.396;2023-04-16T01:36:07;100831.38;;;7.63;32.44
70206;BME280;57593;55.896;37.396;2023-04-16T01:36:37;100833.19;;;7.67;32.56
70206;BME280;57593;55.896;37.396;2023-04-16T01:37:10;100840.56;;;7.65;32.45
70206;BME280;57593;55.896;37.396;2023-04-16T01:37:40;100839.22;;;7.68;32.45
70206;BME280;57593;55.896;37.396;2023-04-16T01:38:11;100840.25;;;7.72;32.40
70206;BME280;57593;55.896;37.396;2023-04-16T01:38:42;100836.31;;;7.69;32.25
70206;BME280;57593;55.896;37.396;2023-04-16T01:39:12;100835.81;;;7.67;32.37
70206;BME280;57593;55.896;37.396;2023-04-16T01:39:45;100835.50;;;7.74;32.37
70206;BME280;57593;55.896;37.396;2023-04-16T01:40:16;100833.94;;;7.73;32.45
70206;BME280;57593;55.896;37.396;2023-04-16T01:40:47;100838.41;;;7.72;32.31
70206;BME280;57593;55.896;37.396;2023-04-16T01:41:17;100835.53;;;7.69;32.48
70206;BME280;57593;55.896;37.396;2023-04-16T01:41:48;100837.63;;;7.72;32.68
70206;BME280;57593;55.896;37.396;2023-04-16T01:42:19;100844.47;;;7.73;32.49
70206;BME280;57593;55.896;37.396;2023-04-16T01:42:49;100832.13;;;7.68;32.46
70206;BME280;57593;55.896;37.396;2023-04-16T01:43:20;100835.50;;;7.74;32.54
70206;BME280;57593;55.896;37.396;2023-04-16T01:43:51;100843.47;;;7.59;32.50
70206;BME280;57593;55.896;37.396;2023-04-16T01:44:22;100834.88;;;7.53;32.56
70206;BME280;57593;55.896;37.396;2023-04-16T01:44:52;100839.75;;;7.65;32.69
70206;BME280;57593;55.896;37.396;2023-04-16T01:45:24;100830.34;;;7.59;32.62
70206;BME280;57593;55.896;37.396;2023-04-16T01:46:08;100827.69;;;7.64;32.65
70206;BME280;57593;55.896;37.396;2023-04-16T01:46:42;100831.41;;;7.58;32.56
70206;BME280;57593;55.896;37.396;2023-04-16T01:47:13;100828.75;;;7.63;32.84
70206;BME280;57593;55.896;37.396;2023-04-16T01:47:43;100832.69;;;7.65;32.75
70206;BME280;57593;55.896;37.396;2023-04-16T01:48:14;100828.50;;;7.59;32.80
70206;BME280;57593;55.896;37.396;2023-04-16T01:48:46;100827.47;;;7.55;32.70
70206;BME280;57593;55.896;37.396;2023-04-16T01:49:16;100830.09;;;7.55;32.88
70206;BME280;57593;55.896;37.396;2023-04-16T01:49:47;100832.41;;;7.67;32.80
70206;BME280;57593;55.896;37.396;2023-04-16T01:50:19;100831.66;;;7.61;32.72
70206;BME280;57593;55.896;37.396;2023-04-16T01:50:50;100825.84;;;7.64;32.67
70206;BME280;57593;55.896;37.396;2023-04-16T01:51:21;100835.06;;;7.62;32.82
70206;BME280;57593;55.896;37.396;2023-04-16T01:51:52;100829.88;;;7.51;32.76
70206;BME280;57593;55.896;37.396;2023-04-16T01:52:22;100831.41;;;7.58;32.83
70206;BME280;57593;55.896;37.396;2023-04-16T01:52:53;100826.88;;;7.63;32.83
70206;BME280;57593;55.896;37.396;2023-04-16T01:53:24;100833.47;;;7.66;32.66
70206;BME280;57593;55.896;37.396;2023-04-16T01:53:54;100828.25;;;7.61;32.71
70206;BME280;57593;55.896;37.396;2023-04-16T01:54:25;100826.94;;;7.58;32.71
70206;BME280;57593;55.896;37.396;2023-04-16T01:54:56;100824.72;;;7.36;32.89
70206;BME280;57593;55.896;37.396;2023-04-16T01:55:27;100829.59;;;7.53;32.88
70206;BME280;57593;55.896;37.396;2023-04-16T01:55:57;100828.25;;;7.61;32.81
70206;BME280;57593;55.896;37.396;2023-04-16T01:56:28;100832.41;;;7.67;32.63
70206;BME280;57593;55.896;37.396;2023-04-16T01:56:59;100824.53;;;7.67;32.70
70206;BME280;57593;55.896;37.396;2023-04-16T01:57:31;100826.13;;;7.63;32.53
70206;BME280;57593;55.896;37.396;2023-04-16T01:58:01;100833.72;;;7.64;32.60
70206;BME280;57593;55.896;37.396;2023-04-16T01:58:36;100830.41;;;7.48;32.73
70206;BME280;57593;55.896;37.396;2023-04-16T01:59:07;100832.94;;;7.64;32.70
70206;BME280;57593;55.896;37.396;2023-04-16T01:59:42;100829.78;;;7.62;32.76
70206;BME280;57593;55.896;37.396;2023-04-16T02:00:13;100832.41;;;7.62;32.65
70206;BME280;57593;55.896;37.396;2023-04-16T02:00:50;100823.22;;;7.64;32.68
70206;BME280;57593;55.896;37.396;2023-04-16T02:01:21;100834.06;;;7.52;32.61
70206;BME280;57593;55.896;37.396;2023-04-16T02:01:52;100834.94;;;7.37;32.85
70206;BME280;57593;55.896;37.396;2023-04-16T02:02:23;100824.94;;;7.40;32.88
70206;BME280;57593;55.896;37.396;2023-04-16T02:02:58;100830.66;;;7.52;32.98
70206;BME280;57593;55.896;37.396;2023-04-16T02:03:31;100831.19;;;7.49;32.90
70206;BME280;57593;55.896;37.396;2023-04-16T02:04:02;100831.19;;;7.49;32.89
70206;BME280;57593;55.896;37.396;2023-04-16T02:04:32;100835.41;;;7.45;32.86
70206;BME280;57593;55.896;37.396;2023-04-16T02:05:03;100834.63;;;7.44;33.11
70206;BME280;57593;55.896;37.396;2023-04-16T02:05:34;100837.84;;;7.36;33.08
70206;BME280;57593;55.896;37.396;2023-04-16T02:06:05;100833.88;;;7.44;32.96
70206;BME280;57593;55.896;37.396;2023-04-16T02:06:35;100826.84;;;7.34;32.91
70206;BME280;57593;55.896;37.396;2023-04-16T02:07:07;100831.22;;;7.44;32.96
70206;BME280;57593;55.896;37.396;2023-04-16T02:07:38;100832.22;;;7.53;32.92
70206;BME280;57593;55.896;37.396;2023-04-16T02:08:09;100835.13;;;7.51;32.93
70206;BME280;57593;55.896;37.396;2023-04-16T02:08:39;100836.69;;;7.52;32.89
70206;BME280;57593;55.896;37.396;2023-04-16T02:09:10;100838.53;;;7.52;32.93
70206;BME280;57593;55.896;37.396;2023-04-16T02:09:43;100835.91;;;7.52;32.86
70206;BME280;57593;55.896;37.396;2023-04-16T02:10:14;100836.66;;;7.58;32.81
70206;BME280;57593;55.896;37.396;2023-04-16T02:10:46;100827.50;;;7.50;32.74
70206;BME280;57593;55.896;37.396;2023-04-16T02:11:17;100835.72;;;7.38;32.95
70206;BME280;57593;55.896;37.396;2023-04-16T02:11:49;100836.44;;;7.49;33.06
70206;BME280;57593;55.896;37.396;2023-04-16T02:12:20;100839.03;;;7.54;32.90
70206;BME280;57593;55.896;37.396;2023-04-16T02:12:51;100837.50;;;7.48;33.11
70206;BME280;57593;55.896;37.396;2023-04-16T02:13:23;100831.44;;;7.52;33.18
70206;BME280;57593;55.896;37.396;2023-04-16T02:13:55;100834.88;;;7.53;32.86
70206;BME280;57593;55.896;37.396;2023-04-16T02:14:26;100828.25;;;7.55;32.94
70206;BME280;57593;55.896;37.396;2023-04-16T02:14:56;100839.31;;;7.58;32.92
70206;BME280;57593;55.896;37.396;2023-04-16T02:15:30;100831.38;;;7.63;32.88
70206;BME280;57593;55.896;37.396;2023-04-16T02:16:00;100837.44;;;7.58;32.57
70206;BME280;57593;55.896;37.396;2023-04-16T02:16:44;100824.63;;;7.46;32.77
70206;BME280;57593;55.896;37.396;2023-04-16T02:17:40;100837.22;;;7.54;33.04
70206;BME280;57593;55.896;37.396;2023-04-16T02:18:13;100830.47;;;7.38;32.85
70206;BME280;57593;55.896;37.396;2023-04-16T02:18:44;100842.06;;;7.32;32.98
70206;BME280;57593;55.896;37.396;2023-04-16T02:19:17;100835.53;;;7.24;33.07
70206;BME280;57593;55.896;37.396;2023-04-16T02:19:48;100838.38;;;7.33;33.08
70206;BME280;57593;55.896;37.396;2023-04-16T02:20:20;100831.09;;;7.25;33.11
70206;BME280;57593;55.896;37.396;2023-04-16T02:21:03;100832.09;;;7.34;33.31
70206;BME280;57593;55.896;37.396;2023-04-16T02:21:35;100836.09;;;7.16;33.11
70206;BME280;57593;55.896;37.396;2023-04-16T02:22:06;100833.97;;;7.18;33.19
70206;BME280;57593;55.896;37.396;2023-04-16T02:22:37;100835.25;;;7.26;33.21
70206;BME280;57593;55.896;37.396;2023-04-16T02:23:08;100828.69;;;7.28;33.06
70206;BME280;57593;55.896;37.396;2023-04-16T02:23:39;100835.06;;;7.17;33.09
70206;BME280;57593;55.896;37.396;2023-04-16T02:24:11;100833.47;;;7.16;33.24
70206;BME280;57593;55.896;37.396;2023-04-16T02:24:42;100829.50;;;7.24;33.30
70206;BME280;57593;55.896;37.396;2023-04-16T02:25:14;100833.44;;;7.26;33.34
70206;BME280;57593;55.896;37.396;2023-04-16T02:25:46;100837.16;;;7.20;33.48
70206;BME280;57593;55.896;37.396;2023-04-16T02:26:18;100830.50;;;7.33;33.27
70206;BME280;57593;55.896;37.396;2023-04-16T02:26:50;100834.41;;;7.41;33.35
70206;BME280;57593;55.896;37.396;2023-04-16T02:27:22;100835.69;;;7.43;33.24
70206;BME280;57593;55.896;37.396;2023-04-16T02:27:56;100833.09;;;7.38;33.32
70206;BME280;57593;55.896;37.396;2023-04-16T02:28:38;100825.97;;;7.38;33.20
70206;BME280;57593;55.896;37.396;2023-04-16T02:29:11;100832.28;;;7.43;33.17
70206;BME280;57593;55.896;37.396;2023-04-16T02:29:47;100840.66;;;7.45;33.16
70206;BME280;57593;55.896;37.396;2023-04-16T02:30:20;100832.28;;;7.43;33.17
70206;BME280;57593;55.896;37.396;2023-04-16T02:30:51;100834.41;;;7.41;33.06
70206;BME280;57593;55.896;37.396;2023-04-16T02:31:23;100829.69;;;7.37;33.27
70206;BME280;57593;55.896;37.396;2023-04-16T02:31:54;100830.47;;;7.38;33.00
70206;BME280;57593;55.896;37.396;2023-04-16T02:32:25;100829.28;;;7.15;33.15
70206;BME280;57593;55.896;37.396;2023-04-16T02:32:56;100836.63;;;7.18;33.23
70206;BME280;57593;55.896;37.396;2023-04-16T02:33:27;100832.69;;;7.15;33.16
70206;BME280;57593;55.896;37.396;2023-04-16T02:34:04;100831.31;;;7.28;33.22
70206;BME280;57593;55.896;37.396;2023-04-16T02:34:34;100830.81;;;7.21;33.19
70206;BME280;57593;55.896;37.396;2023-04-16T02:35:06;100827.91;;;7.28;33.25
70206;BME280;57593;55.896;37.396;2023-04-16T02:35:37;100835.53;;;7.29;33.30
70206;BME280;57593;55.896;37.396;2023-04-16T02:36:08;100831.28;;;7.33;33.27
70206;BME280;57593;55.896;37.396;2023-04-16T02:36:40;100827.09;;;7.32;33.34
70206;BME280;57593;55.896;37.396;2023-04-16T02:37:11;100828.97;;;7.27;33.51
70206;BME280;57593;55.896;37.396;2023-04-16T02:37:42;100826.88;;;7.24;33.64
70206;BME280;57593;55.896;37.396;2023-04-16T02:38:12;100830.03;;;7.20;33.78
70206;BME280;57593;55.896;37.396;2023-04-16T02:38:43;100826.28;;;7.32;33.31
70206;BME280;57593;55.896;37.396;2023-04-16T02:39:14;100836.25;;;7.35;33.39
70206;BME280;57593;55.896;37.396;2023-04-16T02:39:44;100829.47;;;7.29;33.43
70206;BME280;57593;55.896;37.396;2023-04-16T02:40:17;100827.38;;;7.26;33.49
70206;BME280;57593;55.896;37.396;2023-04-16T02:40:48;100836.84;;;7.27;33.48
70206;BME280;57593;55.896;37.396;2023-04-16T02:41:20;100836.34;;;7.25;33.35
70206;BME280;57593;55.896;37.396;2023-04-16T02:41:50;100840.63;;;7.05;33.34
70206;BME280;57593;55.896;37.396;2023-04-16T02:42:21;100842.69;;;7.13;33.37
70206;BME280;57593;55.896;37.396;2023-04-16T02:42:52;100839.72;;;7.30;33.30
70206;BME280;57593;55.896;37.396;2023-04-16T02:43:23;100842.63;;;7.24;33.13
70206;BME280;57593;55.896;37.396;2023-04-16T02:43:54;100835.06;;;7.12;33.17
70206;BME280;57593;55.896;37.396;2023-04-16T02:44:25;100837.16;;;7.15;33.37
70206;BME280;57593;55.896;37.396;2023-04-16T02:44:56;100839.31;;;7.08;33.50